DW9972 Weather Reports


Display with metric or nautical units.
time (UTC)temp
F
wind
direction
speed
MPH
gust
MPH
rain 1hr
in
rain 24hr
in
rain mn
in
humidity
%
barometer
mb
20190222183005 14 347 3.0 4.0 0.00 0.00 0.00 51
20190222180005 12 44 1.0 4.0 0.00 0.00 0.00 54
20190222173005 9 72 2.0 4.0 0.00 0.00 0.00 58
20190222170005 4 62 0.0 3.0 0.00 0.00 0.00 64
20190222163005 0 90 0.0 2.0 0.00 0.00 0.00 66
20190222160005 -3 0 0.0 2.0 0.00 0.00 0.00 67
20190222153005 -7 329 0.0 2.0 0.00 0.00 0.00 66
20190222150005 -7 217 0.0 0.0 0.00 0.00 0.00 66
20190222143005 -7 219 0.0 2.0 0.00 0.00 0.00 66
20190222140005 -7 263 0.0 0.0 0.00 0.00 0.00 66
20190222133005 -7 264 0.0 0.0 0.00 0.00 0.00 67
20190222130005 -8 263 0.0 0.0 0.00 0.00 0.00 65
20190222123005 -8 263 0.0 0.0 0.00 0.00 0.00 66
20190222120005 -7 263 0.0 0.0 0.00 0.00 0.00 67
20190222113005 -7 263 0.0 0.0 0.00 0.00 0.00 67
20190222110005 -7 262 0.0 0.0 0.00 0.00 0.00 64
20190222103005 -7 264 0.0 2.0 0.00 0.00 0.00 67
20190222100005 -6 236 0.0 0.0 0.00 0.00 0.00 65
20190222093005 -6 236 0.0 2.0 0.00 0.00 0.00 67
20190222090005 -6 236 1.0 2.0 0.00 0.00 0.00 63
20190222083006 -6 272 2.0 2.0 0.00 0.00 0.00 66
20190222080006 -6 272 0.0 2.0 0.00 0.00 0.00 67
20190222073005 -4 228 0.0 3.0 0.00 0.00 0.00 63
20190222070005 -4 215 0.0 2.0 0.00 0.00 0.00 69
20190222063006 -4 224 0.0 3.0 0.00 0.00 0.00 65
20190222060005 -4 257 3.0 3.0 0.00 0.00 0.00 65
20190222053005 -2 245 0.0 3.0 0.00 0.00 0.00 64
20190222050005 -2 243 3.0 3.0 0.00 0.00 0.00 69
20190222043006 -1 218 0.0 2.0 0.00 0.00 0.00 65
20190222040005 0 209 0.0 2.0 0.00 0.00 0.00 62
20190222033005 2 208 0.0 2.0 0.00 0.00 0.00 62
20190222030005 4 207 0.0 2.0 0.00 0.00 0.00 62
20190222023006 5 328 0.0 2.0 0.00 0.00 0.00 61
20190222020006 7 329 0.0 3.0 0.00 0.00 0.00 58
20190222013005 8 343 2.0 3.0 0.00 0.00 0.00 57
20190222010005 10 344 0.0 4.0 0.00 0.00 0.00 55
20190222003005 11 335 1.0 6.0 0.00 0.00 0.00 53
20190222000005 12 338 2.0 8.0 0.00 0.00 0.00 53
20190221233005 12 342 4.0 8.0 0.00 0.00 0.00 52
20190221230005 13 357 2.0 9.0 0.00 0.00 0.00 50
20190221223005 13 357 5.0 8.0 0.00 0.00 0.00 50
20190221220005 13 348 4.0 8.0 0.00 0.00 0.00 51
20190221213005 14 351 2.0 8.0 0.00 0.00 0.00 50
20190221210005 13 52 5.0 7.0 0.00 0.00 0.00 51
20190221203005 13 78 3.0 6.0 0.00 0.00 0.00 51
20190221200005 12 32 1.0 8.0 0.00 0.00 0.00 52
20190221193005 12 9 4.0 8.0 0.00 0.00 0.00 53
20190221190005 12 62 2.0 9.0 0.00 0.00 0.00 52